New Kensington, Pennsylvania
Current Conditions -  °F | °C
As of 10:53 PM on Sunday 21 Dec 2014 (Local Time) from KAGC Reporting Station
Clear Clear  
Wind Chill: 21°   Ceiling: Unl
Heat Index: 26°   Visibility: 9mi
Dew Point: 19°   Wind: 5mph
Humidity: 75%   Direction: 70°ENE
Pressure: 30.19"   Gusts: NA
Location:  40.57°N, 79.77°W
Report Text: KAGC 220353Z 07004KT 9SM CLR M03/M07 A3019 RMK AO2 SLP242 T10331072
Loading
Personal Weather Stations






























Interactive Weather Map New forecast layout! Learn more

10-Day Weather Forecast

Advertisements
Track Severe Weather on mobile